createdAt,value
2018-12-06T00:01:18.020Z,168.25
2018-12-06T00:03:50.275Z,164.50
2018-12-06T00:06:22.171Z,176.50
2018-12-06T00:08:54.295Z,169.75
2018-12-06T00:11:25.958Z,160.75
2018-12-06T00:13:57.630Z,166.50
2018-12-06T00:16:29.280Z,163.50
2018-12-06T00:19:11.388Z,173.50
2018-12-06T00:21:43.118Z,179.00
2018-12-06T00:24:14.529Z,167.25
2018-12-06T00:26:46.176Z,166.25
2018-12-06T00:29:17.589Z,170.50
2018-12-06T00:31:49.429Z,156.25
2018-12-06T00:34:21.848Z,168.00
2018-12-06T00:36:54.012Z,169.00
2018-12-06T00:39:25.244Z,180.50
2018-12-06T00:41:56.905Z,166.75
2018-12-06T00:44:28.302Z,164.25
2018-12-06T00:46:59.670Z,174.00
2018-12-06T00:49:30.902Z,165.75
2018-12-06T00:52:02.350Z,168.25
2018-12-06T00:54:33.706Z,169.25
2018-12-06T00:57:06.101Z,123.25
2018-12-06T00:59:37.471Z,159.50
2018-12-06T01:02:09.892Z,156.25
2018-12-06T01:04:41.665Z,160.25
2018-12-06T01:07:13.404Z,158.00
2018-12-06T01:09:44.743Z,157.50
2018-12-06T01:12:16.364Z,156.25
2018-12-06T01:14:49.727Z,155.50
2018-12-06T01:17:22.286Z,149.25
2018-12-06T01:19:57.650Z,155.00
2018-12-06T01:22:31.111Z,163.00
2018-12-06T01:25:04.569Z,149.25
2018-12-06T01:27:40.641Z,156.25
2018-12-06T01:30:14.269Z,148.25
2018-12-06T01:32:45.768Z,152.25
2018-12-06T01:35:19.276Z,153.75
2018-12-06T01:37:52.018Z,150.25
2018-12-06T01:40:23.474Z,157.75
2018-12-06T01:42:54.964Z,154.00
2018-12-06T01:45:26.372Z,156.00
2018-12-06T01:47:58.903Z,161.50
2018-12-06T01:50:30.360Z,152.00
2018-12-06T01:53:01.761Z,160.00
2018-12-06T01:55:33.265Z,153.25
2018-12-06T01:58:05.004Z,147.50
2018-12-06T02:00:36.538Z,150.50
2018-12-06T02:03:08.036Z,158.50
2018-12-06T02:05:39.697Z,152.25
2018-12-06T02:08:11.345Z,156.50
2018-12-06T02:10:42.730Z,165.75
2018-12-06T02:13:15.268Z,163.00
2018-12-06T02:15:46.568Z,149.50
2018-12-06T02:18:18.185Z,154.00
2018-12-06T02:20:50.481Z,162.00
2018-12-06T02:23:22.101Z,162.25
2018-12-06T02:25:53.495Z,155.00
2018-12-06T02:28:25.001Z,162.25
2018-12-06T02:30:56.408Z,154.25
2018-12-06T02:33:28.192Z,161.25
2018-12-06T02:36:03.450Z,166.00
2018-12-06T02:38:35.020Z,153.75
2018-12-06T02:41:10.380Z,160.00
2018-12-06T02:43:42.953Z,161.75
2018-12-06T02:46:14.330Z,169.75
2018-12-06T02:48:45.908Z,176.50
2018-12-06T02:51:17.065Z,167.25
2018-12-06T02:53:48.777Z,173.25
2018-12-06T02:56:20.099Z,167.25
2018-12-06T02:58:52.119Z,190.75
2018-12-06T03:01:23.500Z,192.50
2018-12-06T03:03:55.005Z,189.25
2018-12-06T03:06:26.865Z,189.50
2018-12-06T03:08:58.317Z,195.50
2018-12-06T03:11:30.039Z,200.50
2018-12-06T03:14:01.541Z,216.00
2018-12-06T03:16:35.003Z,220.80
2018-12-06T03:19:06.653Z,231.60
2018-12-06T03:21:38.149Z,223.80
2018-12-06T03:24:09.752Z,226.60
2018-12-06T03:26:41.402Z,214.25
2018-12-06T03:29:12.911Z,239.50
2018-12-06T03:31:45.570Z,230.00
2018-12-06T03:34:26.270Z,223.25
2018-12-06T03:37:00.190Z,231.00
2018-12-06T03:39:42.967Z,235.60
2018-12-06T03:42:16.279Z,239.20
2018-12-06T03:44:51.011Z,248.20
2018-12-06T03:47:32.899Z,238.40
2018-12-06T03:50:20.800Z,237.00
2018-12-06T03:52:52.709Z,234.00
2018-12-06T03:55:25.171Z,248.40
2018-12-06T03:57:56.673Z,227.40
2018-12-06T04:00:34.030Z,230.60
2018-12-06T04:03:06.978Z,235.00
2018-12-06T04:05:39.521Z,217.40
2018-12-06T04:08:17.126Z,211.80
2018-12-06T04:10:54.158Z,209.60
2018-12-06T04:13:31.713Z,194.50
2018-12-06T04:16:07.788Z,206.80
2018-12-06T04:18:39.128Z,189.25
2018-12-06T04:21:15.337Z,191.75
2018-12-06T04:23:46.723Z,141.25
2018-12-06T04:26:21.112Z,145.25
2018-12-06T04:28:52.534Z,141.75
2018-12-06T04:31:25.343Z,160.25
2018-12-06T04:33:59.297Z,128.00
2018-12-06T04:36:31.430Z,166.50
2018-12-06T04:39:06.148Z,151.25
2018-12-06T04:41:38.111Z,152.75
2018-12-06T04:44:10.288Z,159.50
2018-12-06T04:46:41.754Z,156.25
2018-12-06T04:49:13.374Z,163.00
2018-12-06T04:51:45.009Z,169.25
2018-12-06T04:54:16.404Z,145.25
2018-12-06T04:56:48.047Z,155.75
2018-12-06T04:59:19.454Z,132.75
2018-12-06T05:01:50.953Z,130.50
2018-12-06T05:04:22.351Z,117.50
2018-12-06T05:06:53.853Z,117.00
2018-12-06T05:09:26.308Z,120.75
2018-12-06T05:11:57.860Z,114.00
2018-12-06T05:14:29.540Z,115.75
2018-12-06T05:17:01.022Z,108.75
2018-12-06T05:19:32.617Z,111.50
2018-12-06T05:22:04.117Z,125.25
2018-12-06T05:24:36.715Z,105.25
2018-12-06T05:27:08.392Z,101.25
2018-12-06T05:29:39.932Z,109.75
2018-12-06T05:32:11.472Z,99.25
2018-12-06T05:34:43.202Z,107.00
2018-12-06T05:37:14.629Z,105.50
2018-12-06T05:39:46.775Z,111.75
2018-12-06T05:42:18.198Z,97.00
2018-12-06T05:44:49.666Z,107.25
2018-12-06T05:47:21.085Z,114.50
2018-12-06T05:49:52.539Z,112.50
2018-12-06T05:52:24.181Z,111.75
2018-12-06T05:54:55.542Z,105.00
2018-12-06T05:57:27.140Z,111.75
2018-12-06T05:59:58.662Z,117.25
2018-12-06T06:02:30.288Z,100.60
2018-12-06T06:05:01.800Z,82.40
2018-12-06T06:07:33.553Z,97.80
2018-12-06T06:10:05.420Z,108.00
2018-12-06T06:12:36.967Z,92.75
2018-12-06T06:15:08.867Z,92.75
2018-12-06T06:17:41.406Z,103.50
2018-12-06T06:20:17.070Z,100.80
2018-12-06T06:22:48.620Z,97.80
2018-12-06T06:25:21.039Z,92.60
2018-12-06T06:27:53.962Z,88.60
2018-12-06T06:30:28.493Z,93.00
2018-12-06T06:33:02.322Z,92.40
2018-12-06T06:35:33.643Z,84.80
2018-12-06T06:38:05.152Z,79.00
2018-12-06T06:40:37.296Z,73.20
2018-12-06T06:43:11.079Z,72.80
2018-12-06T06:45:43.764Z,72.00
2018-12-06T06:48:15.422Z,76.80
2018-12-06T06:50:50.221Z,69.40
2018-12-06T06:53:21.732Z,69.80
2018-12-06T06:55:53.084Z,73.00
2018-12-06T06:58:28.720Z,84.00
2018-12-06T07:01:00.698Z,75.40
2018-12-06T07:03:32.540Z,80.40
2018-12-06T07:06:04.136Z,75.80
2018-12-06T07:08:36.136Z,76.20
2018-12-06T07:11:56.681Z,75.20
2018-12-06T07:14:28.586Z,70.40
2018-12-06T07:17:01.155Z,73.80
2018-12-06T07:19:32.688Z,72.00
2018-12-06T07:22:04.259Z,71.00
2018-12-06T07:24:39.001Z,70.20
2018-12-06T07:27:11.587Z,71.00
2018-12-06T07:29:43.011Z,68.40
2018-12-06T07:32:14.381Z,64.40
2018-12-06T07:34:46.035Z,66.40
2018-12-06T07:37:17.461Z,64.20
2018-12-06T07:39:48.944Z,63.00
2018-12-06T07:42:21.162Z,66.00
2018-12-06T07:44:52.767Z,65.60
2018-12-06T07:47:24.275Z,64.00
2018-12-06T07:49:56.362Z,56.00
2018-12-06T07:52:27.724Z,62.60
2018-12-06T07:55:01.175Z,63.00
2018-12-06T07:57:34.713Z,60.60
2018-12-06T08:00:08.677Z,58.20
2018-12-06T08:02:45.177Z,60.80
2018-12-06T08:05:17.893Z,61.00
2018-12-06T08:07:49.352Z,59.00
2018-12-06T08:10:20.797Z,63.40
2018-12-06T08:12:53.947Z,55.20
2018-12-06T08:15:25.696Z,58.80
2018-12-06T08:17:57.318Z,60.80
2018-12-06T08:20:30.958Z,58.60
2018-12-06T08:23:02.444Z,50.20
2018-12-06T08:25:34.059Z,59.20
2018-12-06T08:28:05.480Z,55.20
2018-12-06T08:30:37.333Z,56.40
2018-12-06T08:33:08.765Z,50.60
2018-12-06T08:35:40.342Z,60.00
2018-12-06T08:38:12.674Z,56.60
2018-12-06T08:40:45.142Z,59.40
2018-12-06T08:43:16.905Z,55.20
2018-12-06T08:45:48.561Z,57.20
2018-12-06T08:48:21.484Z,53.40
2018-12-06T08:50:53.812Z,51.00
2018-12-06T08:53:25.948Z,65.00
2018-12-06T08:55:57.614Z,52.20
2018-12-06T08:58:29.587Z,53.00
2018-12-06T09:01:01.532Z,50.60
2018-12-06T09:03:34.274Z,49.40
2018-12-06T09:06:05.714Z,53.80
2018-12-06T09:08:37.826Z,51.40
2018-12-06T09:11:10.002Z,56.60
2018-12-06T09:13:42.263Z,58.60
2018-12-06T09:16:14.049Z,57.00
2018-12-06T09:18:45.511Z,51.40
2018-12-06T09:21:17.155Z,56.80
2018-12-06T09:23:48.590Z,63.80
2018-12-06T09:26:20.122Z,57.40
2018-12-06T09:28:52.884Z,65.80
2018-12-06T09:31:26.307Z,63.60
2018-12-06T09:34:06.857Z,64.80
2018-12-06T09:36:39.529Z,63.80
2018-12-06T09:39:12.240Z,56.40
2018-12-06T09:41:43.787Z,63.20
2018-12-06T09:44:16.076Z,61.20
2018-12-06T09:46:47.766Z,63.00
2018-12-06T09:49:19.494Z,64.00
2018-12-06T09:51:51.940Z,71.00
2018-12-06T09:54:23.584Z,68.60
2018-12-06T09:56:55.123Z,65.40
2018-12-06T09:59:26.660Z,60.20
2018-12-06T10:01:58.514Z,72.80
2018-12-06T10:04:30.038Z,70.80
2018-12-06T10:07:01.591Z,69.60
2018-12-06T10:09:33.153Z,72.00
2018-12-06T10:12:07.141Z,70.80
2018-12-06T10:14:41.705Z,71.60
2018-12-06T10:17:13.633Z,70.80
2018-12-06T10:19:45.069Z,65.80
2018-12-06T10:22:16.879Z,71.40
2018-12-06T10:24:48.579Z,65.60
2018-12-06T10:27:20.720Z,68.20
2018-12-06T10:44:47.698Z,64.80
2018-12-06T10:50:33.441Z,72.40
2018-12-06T10:53:16.168Z,65.80
2018-12-06T11:01:53.785Z,74.40
2018-12-06T11:04:29.357Z,69.60
2018-12-06T11:07:01.929Z,70.00
2018-12-06T11:09:35.519Z,70.40
2018-12-06T11:12:07.135Z,64.60
2018-12-06T11:17:36.565Z,67.00
2018-12-06T11:20:08.666Z,61.40
2018-12-06T11:22:40.369Z,70.00
2018-12-06T11:25:11.863Z,67.20
2018-12-06T11:27:46.840Z,64.80
2018-12-06T11:30:18.316Z,66.00
2018-12-06T11:32:49.988Z,67.00
2018-12-06T11:35:22.408Z,67.80
2018-12-06T11:37:59.980Z,72.20
2018-12-06T11:40:31.516Z,67.20
2018-12-06T11:43:06.508Z,63.60
2018-12-06T11:45:38.215Z,63.80
2018-12-06T11:48:11.509Z,65.80
2018-12-06T11:50:43.071Z,62.40
2018-12-06T11:53:14.542Z,68.00
2018-12-06T11:55:45.761Z,68.20
2018-12-06T11:58:19.684Z,72.80
2018-12-06T12:00:54.227Z,64.60
2018-12-06T12:03:31.870Z,67.40
2018-12-06T12:06:04.541Z,63.60
2018-12-06T12:08:41.229Z,64.60
2018-12-06T12:11:18.253Z,70.20
2018-12-06T12:13:55.454Z,65.20
2018-12-06T12:16:32.516Z,71.60
2018-12-06T12:19:06.267Z,63.20
2018-12-06T12:24:38.929Z,63.20
2018-12-06T12:27:16.181Z,73.00
2018-12-06T12:29:52.691Z,71.60
2018-12-06T12:32:28.871Z,69.80
2018-12-06T12:35:12.972Z,64.20
2018-12-06T12:37:53.682Z,76.00
2018-12-06T12:40:30.227Z,77.20
2018-12-06T12:43:01.980Z,66.60
2018-12-06T12:45:42.578Z,78.80
2018-12-06T12:51:12.204Z,79.25
2018-12-06T12:53:45.174Z,81.40
2018-12-06T12:56:55.328Z,84.60
2018-12-06T12:59:28.036Z,80.40
2018-12-06T13:02:00.697Z,92.40
2018-12-06T13:04:36.675Z,92.60
2018-12-06T13:07:27.097Z,88.20
2018-12-06T13:22:15.212Z,101.50
2018-12-06T13:24:53.805Z,94.60
2018-12-06T13:27:32.641Z,98.20
2018-12-06T13:36:27.928Z,105.00
2018-12-06T13:42:23.366Z,118.25
2018-12-06T13:44:50.374Z,113.50
2018-12-06T13:47:22.635Z,127.50
2018-12-06T13:53:05.560Z,129.50
2018-12-06T13:58:52.483Z,142.25
2018-12-06T14:03:18.368Z,140.75
2018-12-06T14:05:49.380Z,153.00
2018-12-06T14:08:24.924Z,163.25
2018-12-06T14:13:36.502Z,168.50
2018-12-06T14:16:12.010Z,168.25
2018-12-06T14:18:46.865Z,171.25
2018-12-06T14:21:22.020Z,189.25
2018-12-06T14:23:53.302Z,194.00
2018-12-06T14:26:23.873Z,203.80
2018-12-06T14:28:57.230Z,227.25
2018-12-06T14:31:27.508Z,228.50
2018-12-06T14:34:01.253Z,212.40
2018-12-06T14:36:31.478Z,206.20
2018-12-06T14:39:03.845Z,201.60
2018-12-06T14:41:37.609Z,194.80
2018-12-06T14:44:07.739Z,206.00
2018-12-06T14:46:37.918Z,201.60
2018-12-06T14:49:08.107Z,206.60
2018-12-06T14:51:42.079Z,203.00
2018-12-06T14:54:12.123Z,220.40
2018-12-06T14:56:46.946Z,201.40
2018-12-06T14:59:17.126Z,209.60
2018-12-06T15:01:47.148Z,222.50
2018-12-06T15:04:18.371Z,224.00
2018-12-06T15:06:50.668Z,224.20
2018-12-06T15:09:26.842Z,236.80
2018-12-06T15:11:58.832Z,233.80
2018-12-06T15:14:38.088Z,217.60
2018-12-06T15:17:08.527Z,235.00
2018-12-06T15:19:45.093Z,236.00
2018-12-06T15:22:20.335Z,234.40
2018-12-06T15:24:50.968Z,234.60
2018-12-06T15:27:27.724Z,240.20
2018-12-06T15:30:02.510Z,236.60
2018-12-06T15:32:32.830Z,241.40
2018-12-06T15:35:12.209Z,255.50
2018-12-06T15:37:46.103Z,268.17
2018-12-06T15:40:19.747Z,250.00
2018-12-06T15:42:50.890Z,259.00
2018-12-06T15:45:27.250Z,255.00
2018-12-06T15:48:03.622Z,254.00
2018-12-06T15:50:40.232Z,256.60
2018-12-06T15:53:27.071Z,260.60
2018-12-06T16:02:26.005Z,229.60
2018-12-06T16:05:05.587Z,247.60
2018-12-06T16:07:36.862Z,250.20
2018-12-06T16:10:17.093Z,254.60
2018-12-06T16:12:52.237Z,256.20
2018-12-06T16:18:15.783Z,245.20
2018-12-06T16:20:56.138Z,248.20
2018-12-06T16:23:31.737Z,246.40
2018-12-06T16:26:03.278Z,248.60
2018-12-06T16:28:37.547Z,253.80
2018-12-06T16:31:17.195Z,251.60
2018-12-06T16:33:47.307Z,249.20
2018-12-06T16:36:18.024Z,242.00
2018-12-06T16:38:50.053Z,244.40
2018-12-06T16:41:23.972Z,248.20
2018-12-06T16:44:04.488Z,248.60
2018-12-06T16:46:50.354Z,253.00
2018-12-06T16:49:33.367Z,250.60
2018-12-06T16:52:04.916Z,245.00
2018-12-06T16:54:46.709Z,253.00
2018-12-06T16:57:27.961Z,258.20
2018-12-06T17:00:06.210Z,253.20
2018-12-06T17:02:46.437Z,267.80
2018-12-06T17:05:24.318Z,254.60
2018-12-06T17:08:00.551Z,266.00
2018-12-06T17:10:32.092Z,258.40
2018-12-06T17:13:08.866Z,260.20
2018-12-06T17:15:52.623Z,261.80
2018-12-06T17:21:23.039Z,258.67
2018-12-06T17:23:57.809Z,263.17
2018-12-06T17:26:34.157Z,269.60
2018-12-06T17:29:08.212Z,258.40
2018-12-06T17:31:43.640Z,257.00
2018-12-06T17:34:17.672Z,252.00
2018-12-06T17:36:53.273Z,251.00
2018-12-06T17:39:28.939Z,252.80
2018-12-06T17:44:57.898Z,243.80
2018-12-06T17:47:37.683Z,241.80
2018-12-06T17:50:13.034Z,246.50
2018-12-06T17:52:47.577Z,232.00
2018-12-06T17:55:23.095Z,222.60
2018-12-06T17:58:02.009Z,234.20
2018-12-06T18:00:39.272Z,232.80
2018-12-06T18:03:12.238Z,217.20
2018-12-06T18:05:48.852Z,220.00
2018-12-06T18:08:23.576Z,223.00
2018-12-06T18:10:59.944Z,215.00
2018-12-06T18:13:30.121Z,218.20
2018-12-06T18:16:04.963Z,203.75
2018-12-06T18:18:40.547Z,207.00
2018-12-06T18:21:21.097Z,199.75
2018-12-06T18:23:51.431Z,210.00
2018-12-06T18:26:33.128Z,210.50
2018-12-06T18:29:08.291Z,207.25
2018-12-06T18:31:45.887Z,206.75
2018-12-06T18:34:17.026Z,200.00
2018-12-06T18:36:50.513Z,201.50
2018-12-06T18:39:20.600Z,205.75
2018-12-06T18:41:56.256Z,202.00
2018-12-06T18:44:26.374Z,200.00
2018-12-06T18:47:01.036Z,199.50
2018-12-06T18:49:31.721Z,196.25
2018-12-06T18:52:06.735Z,194.25
2018-12-06T18:54:38.477Z,189.00
2018-12-06T18:57:14.643Z,195.25
2018-12-06T18:59:44.670Z,206.75
2018-12-06T19:02:18.633Z,199.00
2018-12-06T19:07:37.008Z,189.75
2018-12-06T19:10:10.119Z,196.50
2018-12-06T19:18:28.691Z,192.00
2018-12-06T19:20:58.855Z,194.00
2018-12-06T19:23:34.956Z,182.75
2018-12-06T19:26:08.350Z,193.25
2018-12-06T19:28:41.964Z,191.75
2018-12-06T19:34:02.129Z,181.50
2018-12-06T19:36:39.291Z,184.50
2018-12-06T19:42:05.093Z,180.00
2018-12-06T19:44:35.816Z,176.50
2018-12-06T19:47:14.643Z,169.50
2018-12-06T19:49:49.529Z,170.75
2018-12-06T19:52:21.543Z,168.75
2018-12-06T19:54:55.024Z,178.00
2018-12-06T19:57:25.134Z,172.75
2018-12-06T19:59:59.461Z,164.50
2018-12-06T20:02:29.601Z,159.00
2018-12-06T20:05:10.647Z,147.50
2018-12-06T20:07:47.586Z,163.75
2018-12-06T20:10:22.492Z,152.25
2018-12-06T20:12:57.811Z,156.50
2018-12-06T20:15:44.965Z,155.25
2018-12-06T20:18:14.920Z,154.25
2018-12-06T20:20:46.080Z,154.00
2018-12-06T20:23:27.968Z,150.25
2018-12-06T20:25:58.055Z,142.50
2018-12-06T20:28:31.928Z,147.50
2018-12-06T20:31:09.068Z,146.50
2018-12-06T20:33:39.169Z,143.50
2018-12-06T20:36:18.549Z,146.75
2018-12-06T20:38:56.152Z,141.50
2018-12-06T20:41:26.207Z,140.50
2018-12-06T20:43:57.198Z,141.25
2018-12-06T20:46:31.415Z,136.00
2018-12-06T20:49:10.366Z,150.50
2018-12-06T20:51:41.534Z,146.00
2018-12-06T20:54:14.988Z,141.75
2018-12-06T20:56:55.114Z,140.00
2018-12-06T20:59:25.508Z,140.25
2018-12-06T21:02:05.743Z,139.50
2018-12-06T21:04:36.829Z,143.50
2018-12-06T21:07:18.908Z,137.75
2018-12-06T21:09:48.965Z,141.25
2018-12-06T21:12:19.008Z,141.00
2018-12-06T21:14:49.164Z,136.25
2018-12-06T21:17:19.812Z,138.00
2018-12-06T21:19:49.758Z,134.25
2018-12-06T21:22:21.401Z,138.00
2018-12-06T21:24:51.545Z,143.50
2018-12-06T21:27:21.680Z,132.25
2018-12-06T21:29:51.791Z,137.75
2018-12-06T21:32:22.146Z,136.25
2018-12-06T21:34:54.506Z,132.75
2018-12-06T21:37:24.558Z,136.25
2018-12-06T21:39:56.740Z,140.75
2018-12-06T21:42:27.081Z,140.50
2018-12-06T21:44:57.114Z,135.00
2018-12-06T21:47:28.178Z,139.00
2018-12-06T21:49:58.183Z,140.75
2018-12-06T21:52:28.285Z,136.75
2018-12-06T21:54:58.353Z,138.50
2018-12-06T21:57:28.439Z,138.50
2018-12-06T21:59:58.494Z,133.00
2018-12-06T22:02:29.799Z,134.25
2018-12-06T22:04:59.831Z,138.25
2018-12-06T22:07:30.013Z,127.50
2018-12-06T22:09:59.963Z,137.75
2018-12-06T22:12:30.080Z,136.00
2018-12-06T22:15:00.094Z,137.50
2018-12-06T22:17:31.064Z,134.00
2018-12-06T22:20:01.035Z,132.00
2018-12-06T22:22:31.498Z,124.00
2018-12-06T22:25:01.539Z,128.50
2018-12-06T22:27:31.775Z,131.75
2018-12-06T22:30:01.747Z,127.75
2018-12-06T22:32:32.013Z,128.25
2018-12-06T22:35:02.060Z,134.00
2018-12-06T22:37:32.221Z,120.00
2018-12-06T22:40:02.343Z,124.50
2018-12-06T22:42:32.514Z,127.75
2018-12-06T22:47:11.864Z,123.50
2018-12-06T22:49:42.274Z,131.75
2018-12-06T22:52:12.492Z,127.50
2018-12-06T22:54:42.530Z,129.25
2018-12-06T22:57:12.619Z,134.50
2018-12-06T22:59:42.865Z,137.00
2018-12-06T23:02:12.840Z,126.25
2018-12-06T23:04:43.118Z,130.00
2018-12-06T23:07:13.104Z,137.25
2018-12-06T23:09:43.203Z,127.25
2018-12-06T23:12:13.274Z,128.25
2018-12-06T23:14:43.513Z,128.25
2018-12-06T23:17:13.523Z,127.75
2018-12-06T23:19:45.317Z,121.50
2018-12-06T23:22:15.529Z,122.00
2018-12-06T23:24:46.271Z,124.75
2018-12-06T23:27:16.297Z,127.25
2018-12-06T23:29:46.451Z,119.00
2018-12-06T23:32:16.518Z,124.00
2018-12-06T23:34:47.718Z,129.75
2018-12-06T23:37:17.733Z,129.00
2018-12-06T23:39:47.874Z,115.00
2018-12-06T23:42:17.933Z,120.50
2018-12-06T23:44:48.147Z,126.75
2018-12-06T23:47:18.293Z,128.75
2018-12-06T23:49:48.811Z,121.00
2018-12-06T23:52:18.973Z,126.75
2018-12-06T23:54:49.048Z,121.50
2018-12-06T23:57:19.106Z,126.50
2018-12-06T23:59:49.069Z,124.25
